createdAt,value
2023-12-11T00:00:31.622Z,97000.06
2023-12-11T00:03:35.300Z,96996.38
2023-12-11T00:06:40.466Z,96998.53
2023-12-11T00:09:44.401Z,96991.25
2023-12-11T00:12:48.073Z,96995.59
2023-12-11T00:15:51.848Z,97009.94
2023-12-11T00:18:55.552Z,97000.50
2023-12-11T00:22:00.801Z,97018.66
2023-12-11T00:25:04.399Z,97025.91
2023-12-11T00:28:08.094Z,97024.25
2023-12-11T00:31:13.472Z,96995.53
2023-12-11T00:34:17.506Z,97010.75
2023-12-11T00:37:22.456Z,97004.09
2023-12-11T00:40:26.166Z,97005.34
2023-12-11T00:43:44.190Z,96990.97
2023-12-11T00:46:49.964Z,96982.97
2023-12-11T00:49:53.749Z,96983.28
2023-12-11T00:52:58.780Z,96974.94
2023-12-11T00:56:02.495Z,96975.47
2023-12-11T00:59:06.039Z,96995.25
2023-12-11T01:02:09.690Z,96994.41
2023-12-11T01:05:13.630Z,96999.09
2023-12-11T01:08:18.634Z,96993.31
2023-12-11T01:11:22.208Z,97008.56
2023-12-11T01:14:25.701Z,97015.22
2023-12-11T01:17:38.649Z,97011.91
2023-12-11T01:20:44.365Z,97020.38
2023-12-11T01:23:49.334Z,97030.94
2023-12-11T01:26:53.011Z,97039.75
2023-12-11T01:29:56.626Z,97051.66
2023-12-11T01:33:01.808Z,97059.31
2023-12-11T01:36:06.364Z,97030.97
2023-12-11T01:39:11.619Z,97066.28
2023-12-11T01:42:15.534Z,97055.97
2023-12-11T01:45:19.227Z,97058.63
2023-12-11T01:48:23.617Z,97057.72
2023-12-11T01:51:27.622Z,97057.72
2023-12-11T01:54:32.893Z,97060.44
2023-12-11T01:57:37.111Z,97055.53
2023-12-11T02:00:40.934Z,97066.59
2023-12-11T02:03:45.366Z,97056.47
2023-12-11T02:06:49.204Z,97050.47
2023-12-11T02:09:54.173Z,97049.69
2023-12-11T02:12:58.162Z,97051.13
2023-12-11T02:16:01.839Z,97053.81
2023-12-11T02:19:05.700Z,97060.44
2023-12-11T02:22:10.919Z,97068.84
2023-12-11T02:25:16.080Z,97064.56
2023-12-11T02:28:21.026Z,97073.78
2023-12-11T02:31:24.691Z,97071.97
2023-12-11T02:34:28.428Z,97069.75
2023-12-11T02:37:32.213Z,97066.06
2023-12-11T02:40:36.010Z,97066.69
2023-12-11T02:43:41.254Z,97057.03
2023-12-11T02:46:45.053Z,97043.81
2023-12-11T02:49:48.616Z,97042.72
2023-12-11T02:52:52.176Z,97042.47
2023-12-11T02:55:55.927Z,97039.22
2023-12-11T02:59:01.369Z,97044.66
2023-12-11T03:02:05.867Z,97030.31
2023-12-11T03:05:09.913Z,97043.22
2023-12-11T03:08:13.554Z,97039.06
2023-12-11T03:11:17.093Z,97038.41
2023-12-11T03:14:22.007Z,97034.06
2023-12-11T03:17:25.653Z,97036.72
2023-12-11T03:20:30.046Z,97039.00
2023-12-11T03:23:33.597Z,97034.56
2023-12-11T03:26:37.412Z,97032.47
2023-12-11T03:29:43.107Z,97031.47
2023-12-11T03:32:47.065Z,97032.31
2023-12-11T03:35:50.712Z,97039.75
2023-12-11T03:38:54.304Z,97043.81
2023-12-11T03:41:58.256Z,97046.69
2023-12-11T03:45:03.173Z,97052.78
2023-12-11T03:48:07.526Z,97052.84
2023-12-11T03:51:11.137Z,97056.88
2023-12-11T03:54:15.144Z,97047.69
2023-12-11T03:57:18.703Z,97048.72
2023-12-11T04:00:24.195Z,97043.97
2023-12-11T04:03:27.813Z,97036.38
2023-12-11T04:06:31.869Z,97029.06
2023-12-11T04:09:35.726Z,97030.16
2023-12-11T04:12:39.765Z,96989.44
2023-12-11T04:15:44.980Z,97020.41
2023-12-11T04:18:48.670Z,97036.38
2023-12-11T04:21:52.531Z,97027.06
2023-12-11T04:24:56.119Z,97024.75
2023-12-11T04:28:00.187Z,97027.22
2023-12-11T04:34:25.674Z,97030.78
2023-12-11T04:37:30.550Z,97022.78
2023-12-11T04:40:34.279Z,97037.19
2023-12-11T04:43:37.856Z,97021.16
2023-12-11T04:46:41.605Z,97019.41
2023-12-11T04:49:46.686Z,97014.00
2023-12-11T04:52:50.493Z,97010.56
2023-12-11T04:55:54.315Z,97010.25
2023-12-11T04:58:58.019Z,96998.53
2023-12-11T05:02:01.946Z,97002.13
2023-12-11T05:05:07.902Z,96990.03
2023-12-11T05:08:11.424Z,97005.09
2023-12-11T05:11:15.550Z,97005.28
2023-12-11T05:14:19.120Z,97003.44
2023-12-11T05:17:22.668Z,97005.09
2023-12-11T05:20:27.714Z,97005.41
2023-12-11T05:23:31.826Z,97007.16
2023-12-11T05:26:35.593Z,97009.31
2023-12-11T05:29:39.325Z,97017.47
2023-12-11T05:32:44.405Z,97032.88
2023-12-11T05:35:49.536Z,97038.22
2023-12-11T05:38:53.141Z,97052.16
2023-12-11T05:41:56.934Z,97043.69
2023-12-11T05:45:00.518Z,97052.31
2023-12-11T05:48:04.230Z,97049.84
2023-12-11T05:51:09.323Z,97045.69
2023-12-11T05:54:13.014Z,97046.22
2023-12-11T05:57:16.748Z,97044.91
2023-12-11T06:00:21.581Z,97035.56
2023-12-11T06:03:25.248Z,97031.06
2023-12-11T06:06:31.854Z,97026.00
2023-12-11T06:09:35.807Z,97014.75
2023-12-11T06:12:39.507Z,97020.25
2023-12-11T06:15:43.134Z,97022.72
2023-12-11T06:18:46.875Z,97025.22
2023-12-11T06:21:51.905Z,97024.31
2023-12-11T06:24:55.579Z,97027.22
2023-12-11T06:27:59.494Z,97016.91
2023-12-11T06:31:03.256Z,97018.75
2023-12-11T06:34:07.763Z,97029.31
2023-12-11T06:37:12.960Z,97005.53
2023-12-11T06:40:17.083Z,97009.34
2023-12-11T06:43:20.913Z,97010.94
2023-12-11T06:46:26.351Z,97021.97
2023-12-11T06:49:30.938Z,97015.84
2023-12-11T06:52:36.031Z,97017.91
2023-12-11T06:55:39.731Z,97027.41
2023-12-11T06:58:43.574Z,97023.59
2023-12-11T07:01:47.317Z,97019.41
2023-12-11T07:04:51.069Z,97017.81
2023-12-11T07:07:56.197Z,97004.00
2023-12-11T07:11:00.886Z,97020.56
2023-12-11T07:14:04.948Z,97011.91
2023-12-11T07:17:09.062Z,97012.91
2023-12-11T07:20:13.860Z,97012.41
2023-12-11T07:23:19.053Z,97015.00
2023-12-11T07:26:22.744Z,97008.00
2023-12-11T07:29:26.279Z,97001.44
2023-12-11T07:32:30.502Z,96992.63
2023-12-11T07:35:34.250Z,96983.78
2023-12-11T07:38:39.172Z,96982.03
2023-12-11T07:41:49.735Z,96984.63
2023-12-11T07:44:53.365Z,96983.13
2023-12-11T07:47:57.048Z,96976.13
2023-12-11T07:51:01.608Z,96972.53
2023-12-11T07:54:06.780Z,96971.47
2023-12-11T07:57:10.445Z,96973.13
2023-12-11T08:00:15.346Z,96967.63
2023-12-11T08:03:19.012Z,96951.97
2023-12-11T08:06:22.675Z,96975.78
2023-12-11T08:09:28.265Z,96963.78
2023-12-11T08:12:32.752Z,96966.03
2023-12-11T08:15:38.432Z,96964.19
2023-12-11T08:18:42.854Z,96969.59
2023-12-11T08:21:46.738Z,96955.84
2023-12-11T08:24:51.927Z,96949.56
2023-12-11T08:27:55.613Z,96953.72
2023-12-11T08:30:59.400Z,96951.72
2023-12-11T08:34:04.098Z,96944.38
2023-12-11T08:37:08.985Z,96922.19
2023-12-11T08:40:16.839Z,96935.94
2023-12-11T08:43:20.628Z,96932.91
2023-12-11T08:46:24.292Z,96928.97
2023-12-11T08:49:28.031Z,96926.00
2023-12-11T08:52:32.346Z,96922.03
2023-12-11T08:55:37.243Z,96916.41
2023-12-11T08:58:40.822Z,96910.31
2023-12-11T09:01:44.409Z,96911.03
2023-12-11T09:04:48.136Z,96904.03
2023-12-11T09:07:51.847Z,96909.84
2023-12-11T09:10:57.087Z,96909.66
2023-12-11T09:14:00.950Z,96915.31
2023-12-11T09:17:04.661Z,96905.84
2023-12-11T09:20:11.086Z,96905.69
2023-12-11T09:23:16.117Z,96892.38
2023-12-11T09:26:21.307Z,96866.63
2023-12-11T09:29:24.864Z,96898.47
2023-12-11T09:32:29.586Z,96902.34
2023-12-11T09:35:33.261Z,96904.63
2023-12-11T09:38:37.107Z,96904.91
2023-12-11T09:41:43.955Z,96894.84
2023-12-11T09:44:48.846Z,96907.75
2023-12-11T09:48:04.890Z,96874.88
2023-12-11T09:51:16.323Z,96905.31
2023-12-11T09:54:19.995Z,96908.16
2023-12-11T09:57:26.598Z,96900.28
2023-12-11T10:00:31.101Z,96882.03
2023-12-11T10:03:34.799Z,96867.03
2023-12-11T10:06:38.525Z,96864.72
2023-12-11T10:09:42.162Z,96855.81
2023-12-11T10:12:48.159Z,96856.47
2023-12-11T10:15:51.912Z,96851.38
2023-12-11T10:18:55.644Z,96853.28
2023-12-11T10:21:59.666Z,96852.75
2023-12-11T10:25:04.509Z,96861.88
2023-12-11T10:28:11.660Z,96848.00
2023-12-11T10:34:43.075Z,96851.06
2023-12-11T10:37:47.297Z,96848.91
2023-12-11T10:40:51.663Z,96813.75
2023-12-11T10:44:08.498Z,96846.91
2023-12-11T10:47:19.792Z,96839.44
2023-12-11T10:50:24.958Z,96845.84
2023-12-11T10:53:28.707Z,96846.28
2023-12-11T10:56:32.670Z,96847.72
2023-12-11T10:59:38.465Z,96840.03
2023-12-11T11:02:45.807Z,96817.47
2023-12-11T11:05:52.427Z,96840.97
2023-12-11T11:09:03.187Z,96833.19
2023-12-11T11:12:14.229Z,96833.19
2023-12-11T11:15:22.519Z,96831.09
2023-12-11T11:18:26.154Z,96839.19
2023-12-11T11:21:31.188Z,96840.06
2023-12-11T11:24:36.616Z,96791.81
2023-12-11T11:27:42.196Z,96829.56
2023-12-11T11:30:52.238Z,96834.94
2023-12-11T11:33:58.271Z,96814.25
2023-12-11T11:37:03.461Z,96816.53
2023-12-11T11:40:08.816Z,96819.31
2023-12-11T11:43:14.122Z,96820.59
2023-12-11T11:46:17.861Z,96822.75
2023-12-11T11:49:28.902Z,96823.56
2023-12-11T11:52:33.928Z,96829.38
2023-12-11T11:55:40.317Z,96836.72
2023-12-11T11:58:44.177Z,96842.03
2023-12-11T12:01:52.864Z,96842.97
2023-12-11T12:04:56.723Z,96842.34
2023-12-11T12:08:02.666Z,96838.94
2023-12-11T12:11:06.570Z,96843.50
2023-12-11T12:14:14.420Z,96835.22
2023-12-11T12:17:17.874Z,96846.38
2023-12-11T12:20:22.040Z,96851.56
2023-12-11T12:23:26.959Z,96855.72
2023-12-11T12:26:32.053Z,96843.91
2023-12-11T12:29:37.131Z,96858.41
2023-12-11T12:32:40.828Z,96867.56
2023-12-11T12:35:47.064Z,96858.47
2023-12-11T12:38:52.329Z,96848.00
2023-12-11T12:41:55.973Z,96851.94
2023-12-11T12:44:59.576Z,96851.94
2023-12-11T12:48:03.582Z,96857.66
2023-12-11T12:51:12.233Z,96860.25
2023-12-11T12:54:18.279Z,96844.72
2023-12-11T12:57:21.996Z,96853.00
2023-12-11T13:00:26.095Z,96867.38
2023-12-11T13:03:30.153Z,96876.09
2023-12-11T13:06:34.240Z,96874.44
2023-12-11T13:09:39.219Z,96874.53
2023-12-11T13:12:42.899Z,96881.59
2023-12-11T13:15:46.511Z,96883.88
2023-12-11T13:18:52.204Z,96881.09
2023-12-11T13:21:56.083Z,96880.28
2023-12-11T13:25:01.038Z,96881.63
2023-12-11T13:28:05.014Z,96886.09
2023-12-11T13:31:08.736Z,96880.91
2023-12-11T13:34:12.464Z,96887.13
2023-12-11T13:37:20.420Z,96889.09
2023-12-11T13:40:25.376Z,96896.16
2023-12-11T13:43:29.057Z,96889.81
2023-12-11T13:46:32.916Z,96887.78
2023-12-11T13:49:36.542Z,96887.22
2023-12-11T13:52:40.036Z,96896.88
2023-12-11T13:55:45.091Z,96894.28
2023-12-11T13:58:49.978Z,96896.88
2023-12-11T14:01:57.478Z,96904.16
2023-12-11T14:05:01.783Z,96900.00
2023-12-11T14:08:06.521Z,96921.78
2023-12-11T14:11:11.397Z,96915.88
2023-12-11T14:14:15.681Z,96926.38
2023-12-11T14:17:19.331Z,96928.84
2023-12-11T14:20:22.950Z,96932.88
2023-12-11T14:23:26.755Z,96942.66
2023-12-11T14:26:35.188Z,96933.00
2023-12-11T14:29:42.196Z,96942.09
2023-12-11T14:32:45.699Z,96940.22
2023-12-11T14:35:49.379Z,96947.28
2023-12-11T14:38:52.909Z,96956.72
2023-12-11T14:41:57.716Z,96954.34
2023-12-11T14:45:01.740Z,96954.47
2023-12-11T14:48:05.804Z,96956.94
2023-12-11T14:51:09.295Z,96947.50
2023-12-11T14:54:14.593Z,96963.28
2023-12-11T14:57:19.620Z,96976.34
2023-12-11T15:00:23.447Z,96974.38
2023-12-11T15:03:27.043Z,96986.91
2023-12-11T15:06:30.877Z,96986.16
2023-12-11T15:09:35.769Z,97004.41
2023-12-11T15:12:40.822Z,96998.50
2023-12-11T15:15:45.638Z,97007.00
2023-12-11T15:18:50.115Z,97001.81
2023-12-11T15:21:54.087Z,97012.78
2023-12-11T15:24:57.670Z,97015.28
2023-12-11T15:28:04.012Z,97006.56
2023-12-11T15:31:13.471Z,97005.91
2023-12-11T15:34:18.051Z,97030.94
2023-12-11T15:37:21.654Z,97039.66
2023-12-11T15:40:25.415Z,97032.81
2023-12-11T15:43:30.490Z,97039.66
2023-12-11T15:46:34.045Z,97047.06
2023-12-11T15:49:38.148Z,97045.88
2023-12-11T15:52:41.840Z,97051.88
2023-12-11T15:55:45.335Z,97053.94
2023-12-11T15:58:50.424Z,97053.38
2023-12-11T16:01:54.149Z,97048.19
2023-12-11T16:04:57.988Z,97058.66
2023-12-11T16:08:01.944Z,97047.56
2023-12-11T16:11:07.163Z,97051.09
2023-12-11T16:14:12.133Z,97045.81
2023-12-11T16:17:15.706Z,97054.53
2023-12-11T16:20:20.419Z,97047.28
2023-12-11T16:23:23.997Z,97050.06
2023-12-11T16:26:27.631Z,97060.63
2023-12-11T16:29:35.836Z,97077.53
2023-12-11T16:34:25.520Z,97076.91
2023-12-11T16:37:29.199Z,97086.06
2023-12-11T16:40:33.442Z,97078.66
2023-12-11T16:43:47.148Z,97079.38
2023-12-11T16:46:50.602Z,97085.41
2023-12-11T16:50:02.104Z,97092.25
2023-12-11T16:53:10.415Z,97099.84
2023-12-11T16:56:15.931Z,97102.06
2023-12-11T16:59:19.530Z,97098.66
2023-12-11T17:02:23.444Z,97104.47
2023-12-11T17:05:28.430Z,97109.19
2023-12-11T17:08:32.046Z,97108.00
2023-12-11T17:11:36.149Z,97117.41
2023-12-11T17:14:39.873Z,97116.69
2023-12-11T17:17:43.420Z,97133.38
2023-12-11T17:20:48.481Z,97136.03
2023-12-11T17:23:52.438Z,97146.31
2023-12-11T17:26:55.934Z,97139.16
2023-12-11T17:30:01.551Z,97144.09
2023-12-11T17:33:07.833Z,97144.09
2023-12-11T17:36:13.083Z,97159.06
2023-12-11T17:39:16.801Z,97143.63
2023-12-11T17:42:20.313Z,97146.69
2023-12-11T17:45:26.265Z,97150.94
2023-12-11T17:48:30.130Z,97159.72
2023-12-11T17:51:35.396Z,97174.56
2023-12-11T17:54:39.154Z,97172.72
2023-12-11T17:57:42.740Z,97179.84
2023-12-11T18:00:46.465Z,97172.72
2023-12-11T18:03:50.044Z,97173.84
2023-12-11T18:06:55.456Z,97167.00
2023-12-11T18:09:59.028Z,97167.53
2023-12-11T18:13:02.960Z,97173.84
2023-12-11T18:16:07.099Z,97176.22
2023-12-11T18:19:11.431Z,97173.06
2023-12-11T18:22:16.585Z,97174.75
2023-12-11T18:25:20.234Z,97174.91
2023-12-11T18:28:23.855Z,97182.66
2023-12-11T18:31:27.739Z,97181.84
2023-12-11T18:34:39.479Z,97179.25
2023-12-11T18:37:52.793Z,97188.66
2023-12-11T18:40:56.230Z,97181.84
2023-12-11T18:43:59.636Z,97193.69
2023-12-11T18:47:03.244Z,97179.97
2023-12-11T18:50:07.630Z,97195.25
2023-12-11T18:53:12.521Z,97190.28
2023-12-11T18:56:20.119Z,97202.91
2023-12-11T18:59:23.768Z,97209.75
2023-12-11T19:02:27.401Z,97222.22
2023-12-11T19:05:31.263Z,97225.47
2023-12-11T19:08:36.146Z,97220.84
2023-12-11T19:11:39.676Z,97224.13
2023-12-11T19:14:43.165Z,97224.28
2023-12-11T19:17:46.724Z,97236.28
2023-12-11T19:20:50.496Z,97240.91
2023-12-11T19:23:55.982Z,97238.97
2023-12-11T19:26:59.686Z,97243.31
2023-12-11T19:30:03.215Z,97251.34
2023-12-11T19:33:06.944Z,97262.72
2023-12-11T19:36:11.070Z,97280.47
2023-12-11T19:39:16.324Z,97268.84
2023-12-11T19:42:19.864Z,97276.88
2023-12-11T19:45:23.375Z,97280.38
2023-12-11T19:48:27.065Z,97281.06
2023-12-11T19:51:30.815Z,97287.31
2023-12-11T19:54:35.819Z,97282.88
2023-12-11T19:57:39.813Z,97292.56
2023-12-11T20:00:43.634Z,97298.41
2023-12-11T20:03:47.325Z,97292.47
2023-12-11T20:06:50.958Z,97303.75
2023-12-11T20:09:57.181Z,97293.50
2023-12-11T20:13:00.934Z,97313.28
2023-12-11T20:16:04.711Z,97320.94
2023-12-11T20:19:09.592Z,97317.63
2023-12-11T20:22:13.454Z,97325.56
2023-12-11T20:25:18.383Z,97331.47
2023-12-11T20:28:22.150Z,97351.59
2023-12-11T20:31:26.611Z,97355.94
2023-12-11T20:34:30.205Z,97352.50
2023-12-11T20:37:34.632Z,97358.19
2023-12-11T20:40:39.964Z,97360.22
2023-12-11T20:43:43.487Z,97362.19
2023-12-11T20:46:46.992Z,97364.03
2023-12-11T20:49:50.508Z,97359.59
2023-12-11T20:52:54.259Z,97351.84
2023-12-11T20:55:59.120Z,97367.81
2023-12-11T20:59:02.748Z,97364.38
2023-12-11T21:02:06.607Z,97373.28
2023-12-11T21:05:10.861Z,97381.13
2023-12-11T21:08:14.435Z,97377.72
2023-12-11T21:11:19.304Z,97383.06
2023-12-11T21:14:22.836Z,97387.97
2023-12-11T21:17:26.825Z,97391.22
2023-12-11T21:20:32.526Z,97378.38
2023-12-11T21:23:37.179Z,97389.25
2023-12-11T21:26:42.190Z,97381.56
2023-12-11T21:29:45.711Z,97379.47
2023-12-11T21:32:49.324Z,97377.94
2023-12-11T21:35:52.962Z,97382.81
2023-12-11T21:38:56.691Z,97380.38
2023-12-11T21:42:01.845Z,97378.13
2023-12-11T21:45:05.944Z,97391.59
2023-12-11T21:48:09.424Z,97390.03
2023-12-11T21:51:16.236Z,97393.53
2023-12-11T21:54:20.113Z,97396.44
2023-12-11T21:57:24.943Z,97394.75
2023-12-11T22:00:28.421Z,97390.41
2023-12-11T22:03:32.893Z,97404.81
2023-12-11T22:06:36.393Z,97406.66
2023-12-11T22:09:40.515Z,97405.47
2023-12-11T22:12:45.401Z,97418.28
2023-12-11T22:15:49.071Z,97426.03
2023-12-11T22:18:52.681Z,97426.13
2023-12-11T22:21:56.181Z,97424.59
2023-12-11T22:24:59.804Z,97435.47
2023-12-11T22:28:04.994Z,97426.53
2023-12-11T22:34:25.234Z,97442.75
2023-12-11T22:37:30.029Z,97443.97
2023-12-11T22:40:33.736Z,97429.22
2023-12-11T22:43:37.766Z,97428.22
2023-12-11T22:46:41.339Z,97434.91
2023-12-11T22:49:46.245Z,97434.88
2023-12-11T22:52:51.122Z,97433.13
2023-12-11T22:55:54.889Z,97431.38
2023-12-11T22:58:58.465Z,97436.53
2023-12-11T23:02:04.427Z,97442.53
2023-12-11T23:05:11.917Z,97428.69
2023-12-11T23:08:15.538Z,97422.91
2023-12-11T23:11:19.056Z,97425.03
2023-12-11T23:14:22.660Z,97416.69
2023-12-11T23:17:26.357Z,97428.78
2023-12-11T23:20:31.289Z,97431.13
2023-12-11T23:23:34.897Z,97434.53
2023-12-11T23:26:38.477Z,97434.38
2023-12-11T23:29:43.920Z,97433.63
2023-12-11T23:32:49.545Z,97435.28
2023-12-11T23:35:54.400Z,97444.03
2023-12-11T23:38:57.933Z,97444.66
2023-12-11T23:42:01.387Z,97439.63
2023-12-11T23:45:05.382Z,97444.88
2023-12-11T23:48:08.889Z,97451.72
2023-12-11T23:51:13.728Z,97439.78
2023-12-11T23:54:17.285Z,97435.69
2023-12-11T23:57:20.764Z,97442.53
